Aérodrome :
LOGIN :

S'inscrire | Disclaimer

   EN    FR    IT 

 










Légende :    VFR   VFR Marginal   IFR   IFR Intensif   IFR Très Intensif
Visi : 
Plafond : 
>= 8 km
>= 3000ft
5 à 8 km
1000 à 3000 ft
1500m à 5 km
500 à 1000 ft
800 à 1500m
200 à 500 ft
< 800m
< 200 ft
Symboles :   Orages  Brouillard  Fortes neiges  Fortes précipitations  Vent > 20 kt
SIGMETs :   Divers  Orages  Givrage  Turbulence  Onde Orograph.  Cendres Volcan.







- Altitude de l'aérodrome : 13 ft
- Code IATA : OST


EBOS - Oostend bruges Int.

DERNIER METAR :
  • 110020Z 33009KT 9999 SCT026 07/01 Q1027 NOSIG

METARs EXPIRÉS :
  • 102350Z 32008KT 9999 FEW026 SCT036 07/01 Q1027 NOSIG
  • 102320Z 33009KT 9999 SCT026 07/02 Q1027 NOSIG
  • 102250Z 33009KT 9999 SCT028 07/02 Q1027 NOSIG
  • 102220Z 33010KT 9999 SCT028 07/02 Q1027 NOSIG
  • 102150Z 33010KT 9999 SCT028 07/02 Q1026 NOSIG

TAF TAF EBOS
Valide du 11 à 00h jusqu'au 12 à 06h UTC


102309Z 1100/1206 30005KT 9999 FEW025 SCT040
BECMG 1122/1200 4500 BR
BECMG 1201/1203 2000 MIFG
PROB30
TEMPO 1202/1206 0150 FG
Pas de NOTAMs connus pour ce terrain.



MET'MAP, la Météo Aéronautique d'un coup d'oeil ! - Copyright ORBIFLY Décembre 2007 - Disclaimer

ORBIFLY MET'MAP TEAM :

Programmation & Développement : Alexandra Zaïnal
Conception & Développement : Baudouin d'Aumeries
Co-Programmation & Développement : Marc-Olivier Méhu
Soutien technique & logistique : Manuel Goepfert

Contact : metmap@orbifly.com




SOURCES & CREDITS :

   NOAA